sensor_id;sensor_type;location;lat;lon;timestamp;pressure;altitude;pressure_sealevel;temperature;humidity
6615;BME280;3343;42.896;23.912;2023-04-07T00:01:46;74021.78;;;-145.80;51.00
6615;BME280;3343;42.896;23.912;2023-04-07T00:04:13;73997.69;;;-145.80;50.24
6615;BME280;3343;42.896;23.912;2023-04-07T00:06:41;74075.94;;;-145.80;51.99
6615;BME280;3343;42.896;23.912;2023-04-07T00:09:09;74057.88;;;-145.80;51.80
6615;BME280;3343;42.896;23.912;2023-04-07T00:11:36;74055.88;;;-145.80;51.58
6615;BME280;3343;42.896;23.912;2023-04-07T00:14:03;74085.97;;;-145.80;51.99
6615;BME280;3343;42.896;23.912;2023-04-07T00:16:30;74063.91;;;-145.80;51.46
6615;BME280;3343;42.896;23.912;2023-04-07T00:18:57;74017.75;;;-145.80;50.69
6615;BME280;3343;42.896;23.912;2023-04-07T00:21:24;74005.72;;;-145.80;50.55
6615;BME280;3343;42.896;23.912;2023-04-07T00:23:52;73971.63;;;-145.80;49.93
6615;BME280;3343;42.896;23.912;2023-04-07T00:26:19;73957.56;;;-145.80;49.01
6615;BME280;3343;42.896;23.912;2023-04-07T00:28:46;73949.56;;;-145.80;48.83
6615;BME280;3343;42.896;23.912;2023-04-07T00:31:13;73949.56;;;-145.80;49.04
6615;BME280;3343;42.896;23.912;2023-04-07T00:33:40;73931.50;;;-145.80;49.17
6615;BME280;3343;42.896;23.912;2023-04-07T00:36:07;73951.56;;;-145.80;49.06
6615;BME280;3343;42.896;23.912;2023-04-07T00:38:34;73983.66;;;-145.80;50.12
6615;BME280;3343;42.896;23.912;2023-04-07T00:41:02;73953.56;;;-145.80;49.69
6615;BME280;3343;42.896;23.912;2023-04-07T00:43:29;73987.66;;;-145.80;50.19
6615;BME280;3343;42.896;23.912;2023-04-07T00:45:55;73975.63;;;-145.80;50.35
6615;BME280;3343;42.896;23.912;2023-04-07T00:48:22;73975.63;;;-145.80;50.19
6615;BME280;3343;42.896;23.912;2023-04-07T00:50:50;73989.66;;;-145.80;50.72
6615;BME280;3343;42.896;23.912;2023-04-07T00:53:18;73963.59;;;-145.80;50.72
6615;BME280;3343;42.896;23.912;2023-04-07T00:55:45;73977.63;;;-145.80;50.79
6615;BME280;3343;42.896;23.912;2023-04-07T00:58:13;73939.53;;;-145.80;50.10
6615;BME280;3343;42.896;23.912;2023-04-07T01:00:54;73963.59;;;-145.80;50.63
6615;BME280;3343;42.896;23.912;2023-04-07T01:03:29;73997.69;;;-145.80;51.51
6615;BME280;3343;42.896;23.912;2023-04-07T01:06:00;74069.91;;;-145.80;53.37
6615;BME280;3343;42.896;23.912;2023-04-07T01:08:32;74077.94;;;-145.80;53.48
6615;BME280;3343;42.896;23.912;2023-04-07T01:11:07;74067.91;;;-145.80;53.41
6615;BME280;3343;42.896;23.912;2023-04-07T01:13:41;74051.88;;;-145.80;53.32
6615;BME280;3343;42.896;23.912;2023-04-07T01:16:12;74051.88;;;-145.80;53.07
6615;BME280;3343;42.896;23.912;2023-04-07T01:18:43;74061.91;;;-145.80;53.31
6615;BME280;3343;42.896;23.912;2023-04-07T01:21:13;74108.03;;;-145.80;54.66
6615;BME280;3343;42.896;23.912;2023-04-07T01:24:11;74110.03;;;-145.80;54.47
6615;BME280;3343;42.896;23.912;2023-04-07T01:26:46;74096.00;;;-145.80;53.83
6615;BME280;3343;42.896;23.912;2023-04-07T01:29:29;74067.91;;;-145.80;53.07
6615;BME280;3343;42.896;23.912;2023-04-07T01:31:59;74067.91;;;-145.80;53.31
6615;BME280;3343;42.896;23.912;2023-04-07T01:34:29;74065.91;;;-145.80;52.49
6615;BME280;3343;42.896;23.912;2023-04-07T01:36:58;74102.00;;;-145.80;53.90
6615;BME280;3343;42.896;23.912;2023-04-07T01:39:27;74112.03;;;-145.80;53.65
6615;BME280;3343;42.896;23.912;2023-04-07T01:41:55;74120.06;;;-145.80;54.14
6615;BME280;3343;42.896;23.912;2023-04-07T01:44:23;74077.94;;;-145.80;53.12
6615;BME280;3343;42.896;23.912;2023-04-07T01:46:53;74069.91;;;-145.80;52.54
6615;BME280;3343;42.896;23.912;2023-04-07T01:49:21;74061.91;;;-145.80;51.70
6615;BME280;3343;42.896;23.912;2023-04-07T01:51:49;74091.97;;;-145.80;52.70
6615;BME280;3343;42.896;23.912;2023-04-07T01:54:17;74096.00;;;-145.80;52.92
6615;BME280;3343;42.896;23.912;2023-04-07T01:56:44;74075.94;;;-145.80;52.45
6615;BME280;3343;42.896;23.912;2023-04-07T01:59:11;74071.91;;;-145.80;52.22
6615;BME280;3343;42.896;23.912;2023-04-07T02:01:38;74047.84;;;-145.80;51.84
6615;BME280;3343;42.896;23.912;2023-04-07T02:04:11;74051.88;;;-145.80;51.06
6615;BME280;3343;42.896;23.912;2023-04-07T02:06:43;74055.88;;;-145.80;52.06
6615;BME280;3343;42.896;23.912;2023-04-07T02:09:14;74102.00;;;-145.80;52.71
6615;BME280;3343;42.896;23.912;2023-04-07T02:11:43;74162.19;;;-145.80;54.11
6615;BME280;3343;42.896;23.912;2023-04-07T02:14:12;74166.22;;;-145.80;54.47
6615;BME280;3343;42.896;23.912;2023-04-07T02:16:41;74170.22;;;-145.80;54.80
6615;BME280;3343;42.896;23.912;2023-04-07T02:19:09;74152.16;;;-145.80;54.22
6615;BME280;3343;42.896;23.912;2023-04-07T02:21:38;74140.13;;;-145.80;54.10
6615;BME280;3343;42.896;23.912;2023-04-07T02:24:06;74154.19;;;-145.80;54.28
6615;BME280;3343;42.896;23.912;2023-04-07T02:26:33;74144.16;;;-145.80;53.96
6615;BME280;3343;42.896;23.912;2023-04-07T02:29:00;74158.19;;;-145.80;54.46
6615;BME280;3343;42.896;23.912;2023-04-07T02:31:27;74212.34;;;-145.80;55.54
6615;BME280;3343;42.896;23.912;2023-04-07T02:33:54;74178.25;;;-145.80;54.90
6615;BME280;3343;42.896;23.912;2023-04-07T02:36:22;74142.13;;;-145.80;54.21
6615;BME280;3343;42.896;23.912;2023-04-07T02:38:49;74130.09;;;-145.80;53.80
6615;BME280;3343;42.896;23.912;2023-04-07T02:41:16;74194.31;;;-145.80;54.84
6615;BME280;3343;42.896;23.912;2023-04-07T02:43:43;74192.28;;;-145.80;55.18
6615;BME280;3343;42.896;23.912;2023-04-07T02:46:10;74180.25;;;-145.80;54.67
6615;BME280;3343;42.896;23.912;2023-04-07T02:48:36;74162.19;;;-145.80;54.03
6615;BME280;3343;42.896;23.912;2023-04-07T02:51:03;74170.22;;;-145.80;54.12
6615;BME280;3343;42.896;23.912;2023-04-07T02:53:32;74186.28;;;-145.80;54.44
6615;BME280;3343;42.896;23.912;2023-04-07T02:55:59;74182.25;;;-145.80;54.54
6615;BME280;3343;42.896;23.912;2023-04-07T02:58:26;74228.41;;;-145.80;55.54
6615;BME280;3343;42.896;23.912;2023-04-07T03:00:53;74214.38;;;-145.80;55.46
6615;BME280;3343;42.896;23.912;2023-04-07T03:03:20;74238.44;;;-145.80;55.89
6615;BME280;3343;42.896;23.912;2023-04-07T03:05:46;74320.69;;;-145.80;58.40
6615;BME280;3343;42.896;23.912;2023-04-07T03:08:14;74284.56;;;-145.80;57.80
6615;BME280;3343;42.896;23.912;2023-04-07T03:10:42;74306.66;;;-145.80;58.23
6615;BME280;3343;42.896;23.912;2023-04-07T03:13:09;74274.56;;;-145.80;57.07
6615;BME280;3343;42.896;23.912;2023-04-07T03:15:40;74268.53;;;-145.80;57.05
6615;BME280;3343;42.896;23.912;2023-04-07T03:18:07;74258.50;;;-145.80;56.36
6615;BME280;3343;42.896;23.912;2023-04-07T03:20:34;74238.44;;;-145.80;55.99
6615;BME280;3343;42.896;23.912;2023-04-07T03:23:01;74224.38;;;-145.80;56.01
6615;BME280;3343;42.896;23.912;2023-04-07T03:25:28;74226.41;;;-145.80;55.81
6615;BME280;3343;42.896;23.912;2023-04-07T03:27:56;74206.34;;;-145.80;55.58
6615;BME280;3343;42.896;23.912;2023-04-07T03:30:24;74226.41;;;-145.80;55.95
6615;BME280;3343;42.896;23.912;2023-04-07T03:32:51;74220.38;;;-145.80;55.76
6615;BME280;3343;42.896;23.912;2023-04-07T03:35:18;74238.44;;;-145.80;56.20
6615;BME280;3343;42.896;23.912;2023-04-07T03:37:45;74270.53;;;-145.80;57.31
6615;BME280;3343;42.896;23.912;2023-04-07T03:40:12;74240.44;;;-145.80;56.92
6615;BME280;3343;42.896;23.912;2023-04-07T03:42:39;74260.50;;;-145.80;57.18
6615;BME280;3343;42.896;23.912;2023-04-07T03:45:08;74246.47;;;-145.80;57.17
6615;BME280;3343;42.896;23.912;2023-04-07T03:47:35;74252.47;;;-145.80;57.17
6615;BME280;3343;42.896;23.912;2023-04-07T03:50:02;74230.41;;;-145.80;56.77
6615;BME280;3343;42.896;23.912;2023-04-07T03:52:30;74248.47;;;-145.80;56.93
6615;BME280;3343;42.896;23.912;2023-04-07T03:54:56;74238.44;;;-145.80;56.99
6615;BME280;3343;42.896;23.912;2023-04-07T03:57:23;74218.38;;;-145.80;56.18
6615;BME280;3343;42.896;23.912;2023-04-07T03:59:50;74282.56;;;-145.80;57.41
6615;BME280;3343;42.896;23.912;2023-04-07T04:02:18;74300.63;;;-145.80;58.57
6615;BME280;3343;42.896;23.912;2023-04-07T04:04:45;74266.53;;;-145.80;57.27
6615;BME280;3343;42.896;23.912;2023-04-07T04:07:12;74284.56;;;-145.80;57.53
6615;BME280;3343;42.896;23.912;2023-04-07T04:09:39;74252.47;;;-145.80;56.69
6615;BME280;3343;42.896;23.912;2023-04-07T04:12:06;74310.66;;;-145.80;57.92
6615;BME280;3343;42.896;23.912;2023-04-07T04:14:33;74288.59;;;-145.80;57.21
6615;BME280;3343;42.896;23.912;2023-04-07T04:17:00;74270.53;;;-145.80;56.79
6615;BME280;3343;42.896;23.912;2023-04-07T04:19:28;74320.69;;;-145.80;57.95
6615;BME280;3343;42.896;23.912;2023-04-07T04:21:55;74300.63;;;-145.80;57.81
6615;BME280;3343;42.896;23.912;2023-04-07T04:24:22;74304.66;;;-145.80;57.39
6615;BME280;3343;42.896;23.912;2023-04-07T04:26:49;74264.53;;;-145.80;56.96
6615;BME280;3343;42.896;23.912;2023-04-07T04:29:16;74208.34;;;-145.80;56.02
6615;BME280;3343;42.896;23.912;2023-04-07T04:31:42;74186.28;;;-145.80;54.96
6615;BME280;3343;42.896;23.912;2023-04-07T04:34:09;74140.13;;;-145.80;54.06
6615;BME280;3343;42.896;23.912;2023-04-07T04:36:37;74065.91;;;-145.80;52.58
6615;BME280;3343;42.896;23.912;2023-04-07T04:39:05;74045.84;;;-145.80;51.06
6615;BME280;3343;42.896;23.912;2023-04-07T04:41:31;74011.75;;;-145.80;50.60
6615;BME280;3343;42.896;23.912;2023-04-07T04:43:58;73979.66;;;-145.80;49.54
6615;BME280;3343;42.896;23.912;2023-04-07T04:46:25;73967.59;;;-145.80;48.96
6615;BME280;3343;42.896;23.912;2023-04-07T04:48:52;73995.69;;;-145.80;48.96
6615;BME280;3343;42.896;23.912;2023-04-07T04:51:19;74035.81;;;-145.80;50.61
6615;BME280;3343;42.896;23.912;2023-04-07T04:53:48;74029.78;;;-145.80;51.34
6615;BME280;3343;42.896;23.912;2023-04-07T04:56:15;73997.69;;;-145.80;50.63
6615;BME280;3343;42.896;23.912;2023-04-07T04:58:41;73983.66;;;-145.80;50.62
6615;BME280;3343;42.896;23.912;2023-04-07T05:01:10;74091.97;;;-145.80;51.49
6615;BME280;3343;42.896;23.912;2023-04-07T05:03:37;74057.88;;;-145.80;50.90
6615;BME280;3343;42.896;23.912;2023-04-07T05:06:05;73979.66;;;-145.80;50.88
6615;BME280;3343;42.896;23.912;2023-04-07T05:08:32;73891.38;;;-145.80;49.64
6615;BME280;3343;42.896;23.912;2023-04-07T05:11:00;73851.25;;;-145.80;47.81
6615;BME280;3343;42.896;23.912;2023-04-07T05:13:27;73803.13;;;-145.80;46.73
6615;BME280;3343;42.896;23.912;2023-04-07T05:15:55;73763.00;;;-145.80;45.33
6615;BME280;3343;42.896;23.912;2023-04-07T05:18:22;73730.91;;;-145.80;44.84
6615;BME280;3343;42.896;23.912;2023-04-07T05:20:49;73684.75;;;-145.80;43.49
6615;BME280;3343;42.896;23.912;2023-04-07T05:23:16;73622.56;;;-145.80;42.49
6615;BME280;3343;42.896;23.912;2023-04-07T05:25:43;73538.34;;;-145.80;39.50
6615;BME280;3343;42.896;23.912;2023-04-07T05:28:11;73488.19;;;-145.80;40.39
6615;BME280;3343;42.896;23.912;2023-04-07T05:30:37;73496.22;;;-145.80;38.58
6615;BME280;3343;42.896;23.912;2023-04-07T05:33:04;73470.13;;;-145.80;36.01
6615;BME280;3343;42.896;23.912;2023-04-07T05:35:31;73478.16;;;-145.80;35.84
6615;BME280;3343;42.896;23.912;2023-04-07T05:37:58;73417.97;;;-145.80;35.67
6615;BME280;3343;42.896;23.912;2023-04-07T05:40:25;73387.91;;;-145.80;34.17
6615;BME280;3343;42.896;23.912;2023-04-07T05:42:52;73313.69;;;-145.80;33.39
6615;BME280;3343;42.896;23.912;2023-04-07T05:45:20;73273.56;;;-145.80;33.97
6615;BME280;3343;42.896;23.912;2023-04-07T05:47:47;73271.56;;;-145.80;33.10
6615;BME280;3343;42.896;23.912;2023-04-07T05:50:15;73309.69;;;-145.80;33.41
6615;BME280;3343;42.896;23.912;2023-04-07T05:52:41;73347.78;;;-145.80;33.30
6615;BME280;3343;42.896;23.912;2023-04-07T05:55:08;73413.97;;;-145.80;34.35
6615;BME280;3343;42.896;23.912;2023-04-07T05:57:36;73442.06;;;-145.80;33.51
6615;BME280;3343;42.896;23.912;2023-04-07T06:00:03;73462.13;;;-145.80;34.39
6615;BME280;3343;42.896;23.912;2023-04-07T06:02:31;73466.13;;;-145.80;34.46
6615;BME280;3343;42.896;23.912;2023-04-07T06:04:58;73486.19;;;-145.80;34.72
6615;BME280;3343;42.896;23.912;2023-04-07T06:07:24;73502.22;;;-145.80;35.76
6615;BME280;3343;42.896;23.912;2023-04-07T06:09:51;73518.28;;;-145.80;36.17
6615;BME280;3343;42.896;23.912;2023-04-07T06:12:18;73534.31;;;-145.80;36.51
6615;BME280;3343;42.896;23.912;2023-04-07T06:14:51;73534.31;;;-145.80;36.29
6615;BME280;3343;42.896;23.912;2023-04-07T06:17:18;73580.47;;;-145.80;36.44
6615;BME280;3343;42.896;23.912;2023-04-07T06:19:46;73558.38;;;-145.80;36.92
6615;BME280;3343;42.896;23.912;2023-04-07T06:22:13;73570.44;;;-145.80;37.13
6615;BME280;3343;42.896;23.912;2023-04-07T06:24:40;73582.47;;;-145.80;36.22
6615;BME280;3343;42.896;23.912;2023-04-07T06:27:07;73554.38;;;-145.80;36.80
6615;BME280;3343;42.896;23.912;2023-04-07T06:29:34;73566.41;;;-145.80;36.27
6615;BME280;3343;42.896;23.912;2023-04-07T06:32:01;73564.41;;;-145.80;36.03
6615;BME280;3343;42.896;23.912;2023-04-07T06:34:28;73594.50;;;-145.80;36.49
6615;BME280;3343;42.896;23.912;2023-04-07T06:36:56;73614.56;;;-145.80;36.49
6615;BME280;3343;42.896;23.912;2023-04-07T06:39:24;73586.47;;;-145.80;35.80
6615;BME280;3343;42.896;23.912;2023-04-07T06:41:52;73574.44;;;-145.80;35.31
6615;BME280;3343;42.896;23.912;2023-04-07T06:44:19;73586.47;;;-145.80;34.65
6615;BME280;3343;42.896;23.912;2023-04-07T06:46:46;73570.44;;;-145.80;35.17
6615;BME280;3343;42.896;23.912;2023-04-07T06:49:15;73562.41;;;-145.80;35.14
6615;BME280;3343;42.896;23.912;2023-04-07T06:51:42;73512.25;;;-145.80;34.26
6615;BME280;3343;42.896;23.912;2023-04-07T06:54:10;73484.19;;;-145.80;34.31
6615;BME280;3343;42.896;23.912;2023-04-07T06:56:39;73518.28;;;-145.80;34.09
6615;BME280;3343;42.896;23.912;2023-04-07T06:59:06;73512.25;;;-145.80;33.78
6615;BME280;3343;42.896;23.912;2023-04-07T07:01:33;73534.31;;;-145.80;34.32
6615;BME280;3343;42.896;23.912;2023-04-07T07:04:00;73576.44;;;-145.80;34.09
6615;BME280;3343;42.896;23.912;2023-04-07T07:06:27;73508.25;;;-145.80;34.59
6615;BME280;3343;42.896;23.912;2023-04-07T07:08:54;73454.09;;;-145.80;34.00
6615;BME280;3343;42.896;23.912;2023-04-07T07:11:22;73397.94;;;-145.80;33.87
6615;BME280;3343;42.896;23.912;2023-04-07T07:13:49;73371.84;;;-145.80;32.71
6615;BME280;3343;42.896;23.912;2023-04-07T07:16:16;73281.59;;;-145.80;32.94
6615;BME280;3343;42.896;23.912;2023-04-07T07:18:42;73267.56;;;-145.80;32.54
6615;BME280;3343;42.896;23.912;2023-04-07T07:21:09;73213.41;;;-145.80;31.95
6615;BME280;3343;42.896;23.912;2023-04-07T07:23:36;73189.34;;;-145.80;30.64
6615;BME280;3343;42.896;23.912;2023-04-07T07:26:03;73167.28;;;-145.80;31.21
6615;BME280;3343;42.896;23.912;2023-04-07T07:28:32;73181.31;;;-145.80;30.86
6615;BME280;3343;42.896;23.912;2023-04-07T07:30:59;73179.31;;;-145.80;30.73
6615;BME280;3343;42.896;23.912;2023-04-07T07:33:28;73245.50;;;-145.80;30.73
6615;BME280;3343;42.896;23.912;2023-04-07T07:35:55;73303.66;;;-145.80;30.17
6615;BME280;3343;42.896;23.912;2023-04-07T07:38:22;73295.63;;;-145.80;30.75
6615;BME280;3343;42.896;23.912;2023-04-07T07:40:49;73259.53;;;-145.80;30.80
6615;BME280;3343;42.896;23.912;2023-04-07T07:43:16;73273.56;;;-145.80;30.29
6615;BME280;3343;42.896;23.912;2023-04-07T07:45:44;73245.50;;;-145.80;30.26
6615;BME280;3343;42.896;23.912;2023-04-07T07:48:11;73257.53;;;-145.80;30.17
6615;BME280;3343;42.896;23.912;2023-04-07T07:50:38;73235.47;;;-145.80;30.77
6615;BME280;3343;42.896;23.912;2023-04-07T07:53:05;73281.59;;;-145.80;30.46
6615;BME280;3343;42.896;23.912;2023-04-07T07:55:32;73301.66;;;-145.80;30.61
6615;BME280;3343;42.896;23.912;2023-04-07T07:57:59;73243.50;;;-145.80;30.27
6615;BME280;3343;42.896;23.912;2023-04-07T08:00:26;73243.50;;;-145.80;30.08
6615;BME280;3343;42.896;23.912;2023-04-07T08:02:54;73243.50;;;-145.80;30.34
6615;BME280;3343;42.896;23.912;2023-04-07T08:05:21;73239.47;;;-145.80;30.33
6615;BME280;3343;42.896;23.912;2023-04-07T08:07:48;73271.56;;;-145.80;30.53
6615;BME280;3343;42.896;23.912;2023-04-07T08:10:15;73265.56;;;-145.80;30.11
6615;BME280;3343;42.896;23.912;2023-04-07T08:12:42;73223.44;;;-145.80;29.79
6615;BME280;3343;42.896;23.912;2023-04-07T08:15:09;73257.53;;;-145.80;30.05
6615;BME280;3343;42.896;23.912;2023-04-07T08:17:36;73233.47;;;-145.80;30.39
6615;BME280;3343;42.896;23.912;2023-04-07T08:20:06;73241.47;;;-145.80;29.98
6615;BME280;3343;42.896;23.912;2023-04-07T08:22:35;73213.41;;;-145.80;30.32
6615;BME280;3343;42.896;23.912;2023-04-07T08:25:03;73121.16;;;-145.80;30.32
6615;BME280;3343;42.896;23.912;2023-04-07T08:27:30;73123.16;;;-145.80;29.13
6615;BME280;3343;42.896;23.912;2023-04-07T08:29:58;73181.31;;;-145.80;28.78
6615;BME280;3343;42.896;23.912;2023-04-07T08:32:33;73183.31;;;-145.80;30.24
6615;BME280;3343;42.896;23.912;2023-04-07T08:35:00;73193.34;;;-145.80;30.15
6615;BME280;3343;42.896;23.912;2023-04-07T08:37:29;73221.44;;;-145.80;29.81
6615;BME280;3343;42.896;23.912;2023-04-07T08:39:56;73235.47;;;-145.80;30.48
6615;BME280;3343;42.896;23.912;2023-04-07T08:42:26;73241.47;;;-145.80;30.51
6615;BME280;3343;42.896;23.912;2023-04-07T08:44:55;73227.44;;;-145.80;30.54
6615;BME280;3343;42.896;23.912;2023-04-07T08:47:22;73231.47;;;-145.80;30.95
6615;BME280;3343;42.896;23.912;2023-04-07T08:49:51;73227.44;;;-145.80;30.51
6615;BME280;3343;42.896;23.912;2023-04-07T08:52:22;73213.41;;;-145.80;31.04
6615;BME280;3343;42.896;23.912;2023-04-07T08:54:50;73233.47;;;-145.80;30.33
6615;BME280;3343;42.896;23.912;2023-04-07T08:57:18;73251.50;;;-145.80;30.16
6615;BME280;3343;42.896;23.912;2023-04-07T08:59:45;73241.47;;;-145.80;30.29
6615;BME280;3343;42.896;23.912;2023-04-07T09:02:13;73225.44;;;-145.80;31.16
6615;BME280;3343;42.896;23.912;2023-04-07T09:04:42;73221.44;;;-145.80;30.49
6615;BME280;3343;42.896;23.912;2023-04-07T09:07:10;73235.47;;;-145.80;30.42
6615;BME280;3343;42.896;23.912;2023-04-07T09:09:36;73281.59;;;-145.80;30.93
6615;BME280;3343;42.896;23.912;2023-04-07T09:12:05;73261.53;;;-145.80;30.51
6615;BME280;3343;42.896;23.912;2023-04-07T09:14:32;73245.50;;;-145.80;31.07
6615;BME280;3343;42.896;23.912;2023-04-07T09:16:59;73223.44;;;-145.80;31.04
6615;BME280;3343;42.896;23.912;2023-04-07T09:19:26;73273.56;;;-145.80;29.74
6615;BME280;3343;42.896;23.912;2023-04-07T09:21:53;73311.69;;;-145.80;30.22
6615;BME280;3343;42.896;23.912;2023-04-07T09:24:21;73283.59;;;-145.80;31.09
6615;BME280;3343;42.896;23.912;2023-04-07T09:26:48;73263.53;;;-145.80;30.14
6615;BME280;3343;42.896;23.912;2023-04-07T09:29:19;73273.56;;;-145.80;30.04
6615;BME280;3343;42.896;23.912;2023-04-07T09:31:48;73235.47;;;-145.80;30.14
6615;BME280;3343;42.896;23.912;2023-04-07T09:34:26;73213.41;;;-145.80;30.08
6615;BME280;3343;42.896;23.912;2023-04-07T09:36:54;73211.41;;;-145.80;31.19
6615;BME280;3343;42.896;23.912;2023-04-07T09:39:21;73265.56;;;-145.80;29.30
6615;BME280;3343;42.896;23.912;2023-04-07T09:41:48;73219.41;;;-145.80;30.51
6615;BME280;3343;42.896;23.912;2023-04-07T09:44:15;73273.56;;;-145.80;29.88
6615;BME280;3343;42.896;23.912;2023-04-07T09:46:50;73281.59;;;-145.80;29.57
6615;BME280;3343;42.896;23.912;2023-04-07T09:49:18;73351.78;;;-145.80;30.03
6615;BME280;3343;42.896;23.912;2023-04-07T09:51:54;73281.59;;;-145.80;29.52
6615;BME280;3343;42.896;23.912;2023-04-07T09:54:35;73239.47;;;-145.80;30.73
6615;BME280;3343;42.896;23.912;2023-04-07T09:57:03;73211.41;;;-145.80;30.29
6615;BME280;3343;42.896;23.912;2023-04-07T09:59:31;73189.34;;;-145.80;29.50
6615;BME280;3343;42.896;23.912;2023-04-07T10:02:00;73153.25;;;-145.80;30.04
6615;BME280;3343;42.896;23.912;2023-04-07T10:04:27;73149.22;;;-145.80;29.07
6615;BME280;3343;42.896;23.912;2023-04-07T10:06:55;73089.06;;;-145.80;28.65
6615;BME280;3343;42.896;23.912;2023-04-07T10:09:23;73022.88;;;-145.80;29.12
6615;BME280;3343;42.896;23.912;2023-04-07T10:11:50;73036.91;;;-145.80;28.28
6615;BME280;3343;42.896;23.912;2023-04-07T10:14:19;73113.13;;;-145.80;29.96
6615;BME280;3343;42.896;23.912;2023-04-07T10:16:46;73163.25;;;-145.80;29.87
6615;BME280;3343;42.896;23.912;2023-04-07T10:19:15;73169.28;;;-145.80;30.48
6615;BME280;3343;42.896;23.912;2023-04-07T10:21:42;73217.41;;;-145.80;30.01
6615;BME280;3343;42.896;23.912;2023-04-07T10:24:21;73213.41;;;-145.80;30.26
6615;BME280;3343;42.896;23.912;2023-04-07T10:26:53;73199.38;;;-145.80;31.10
6615;BME280;3343;42.896;23.912;2023-04-07T10:29:22;73209.41;;;-145.80;31.09
6615;BME280;3343;42.896;23.912;2023-04-07T10:31:51;73181.31;;;-145.80;30.51
6615;BME280;3343;42.896;23.912;2023-04-07T10:37:21;73189.34;;;-145.80;30.73
6615;BME280;3343;42.896;23.912;2023-04-07T10:39:49;73163.25;;;-145.80;30.42
6615;BME280;3343;42.896;23.912;2023-04-07T10:42:44;73026.88;;;-145.80;29.23
6615;BME280;3343;42.896;23.912;2023-04-07T10:45:12;73016.84;;;-145.80;29.63
6615;BME280;3343;42.896;23.912;2023-04-07T10:48:10;73018.88;;;-145.80;29.02
6615;BME280;3343;42.896;23.912;2023-04-07T10:50:38;73028.91;;;-145.80;29.38
6615;BME280;3343;42.896;23.912;2023-04-07T10:53:07;73012.84;;;-145.80;29.22
6615;BME280;3343;42.896;23.912;2023-04-07T10:55:36;73050.94;;;-145.80;29.31
6615;BME280;3343;42.896;23.912;2023-04-07T10:58:16;73024.88;;;-145.80;29.01
6615;BME280;3343;42.896;23.912;2023-04-07T11:03:58;73022.88;;;-145.80;29.71
6615;BME280;3343;42.896;23.912;2023-04-07T11:06:25;73085.03;;;-145.80;29.51
6615;BME280;3343;42.896;23.912;2023-04-07T11:08:54;73040.94;;;-145.80;29.60
6615;BME280;3343;42.896;23.912;2023-04-07T11:11:37;73038.91;;;-145.80;29.33
6615;BME280;3343;42.896;23.912;2023-04-07T11:14:04;73083.03;;;-145.80;29.36
6615;BME280;3343;42.896;23.912;2023-04-07T11:16:36;73087.06;;;-145.80;29.38
6615;BME280;3343;42.896;23.912;2023-04-07T11:19:03;73109.13;;;-145.80;30.07
6615;BME280;3343;42.896;23.912;2023-04-07T11:21:30;73149.22;;;-145.80;30.42
6615;BME280;3343;42.896;23.912;2023-04-07T11:23:59;73137.19;;;-145.80;30.51
6615;BME280;3343;42.896;23.912;2023-04-07T11:26:26;73177.31;;;-145.80;31.12
6615;BME280;3343;42.896;23.912;2023-04-07T11:28:55;73169.28;;;-145.80;31.09
6615;BME280;3343;42.896;23.912;2023-04-07T11:31:23;73181.31;;;-145.80;30.80
6615;BME280;3343;42.896;23.912;2023-04-07T11:33:54;73133.19;;;-145.80;30.91
6615;BME280;3343;42.896;23.912;2023-04-07T11:36:29;73141.19;;;-145.80;31.44
6615;BME280;3343;42.896;23.912;2023-04-07T11:38:58;73183.31;;;-145.80;30.89
6615;BME280;3343;42.896;23.912;2023-04-07T11:41:27;73145.22;;;-145.80;31.86
6615;BME280;3343;42.896;23.912;2023-04-07T11:44:08;73113.13;;;-145.80;31.09
6615;BME280;3343;42.896;23.912;2023-04-07T11:46:36;73107.09;;;-145.80;30.66
6615;BME280;3343;42.896;23.912;2023-04-07T11:49:18;73125.16;;;-145.80;30.84
6615;BME280;3343;42.896;23.912;2023-04-07T11:51:45;73085.03;;;-145.80;30.92
6615;BME280;3343;42.896;23.912;2023-04-07T11:54:13;73095.06;;;-145.80;30.51
6615;BME280;3343;42.896;23.912;2023-04-07T11:56:42;73117.13;;;-145.80;30.16
6615;BME280;3343;42.896;23.912;2023-04-07T11:59:18;73087.06;;;-145.80;30.70
6615;BME280;3343;42.896;23.912;2023-04-07T12:01:48;73119.13;;;-145.80;30.99
6615;BME280;3343;42.896;23.912;2023-04-07T12:04:15;73089.06;;;-145.80;30.38
6615;BME280;3343;42.896;23.912;2023-04-07T12:06:43;73103.09;;;-145.80;29.68
6615;BME280;3343;42.896;23.912;2023-04-07T12:09:26;73058.97;;;-145.80;30.22
6615;BME280;3343;42.896;23.912;2023-04-07T12:11:54;73054.97;;;-145.80;30.02
6615;BME280;3343;42.896;23.912;2023-04-07T12:14:21;73050.94;;;-145.80;30.51
6615;BME280;3343;42.896;23.912;2023-04-07T12:16:48;73048.94;;;-145.80;30.38
6615;BME280;3343;42.896;23.912;2023-04-07T12:19:15;73087.06;;;-145.80;30.17
6615;BME280;3343;42.896;23.912;2023-04-07T12:21:42;73105.09;;;-145.80;30.03
6615;BME280;3343;42.896;23.912;2023-04-07T12:24:10;73095.06;;;-145.80;30.85
6615;BME280;3343;42.896;23.912;2023-04-07T12:26:38;73073.00;;;-145.80;30.87
6615;BME280;3343;42.896;23.912;2023-04-07T12:29:05;73042.94;;;-145.80;31.52
6615;BME280;3343;42.896;23.912;2023-04-07T12:31:33;73115.13;;;-145.80;30.14
6615;BME280;3343;42.896;23.912;2023-04-07T12:34:00;73129.16;;;-145.80;30.52
6615;BME280;3343;42.896;23.912;2023-04-07T12:36:27;73107.09;;;-145.80;30.56
6615;BME280;3343;42.896;23.912;2023-04-07T12:38:54;73058.97;;;-145.80;30.49
6615;BME280;3343;42.896;23.912;2023-04-07T12:41:21;73083.03;;;-145.80;30.07
6615;BME280;3343;42.896;23.912;2023-04-07T12:43:50;73042.94;;;-145.80;30.39
6615;BME280;3343;42.896;23.912;2023-04-07T12:46:18;73040.94;;;-145.80;30.13
6615;BME280;3343;42.896;23.912;2023-04-07T12:48:45;73038.91;;;-145.80;30.24
6615;BME280;3343;42.896;23.912;2023-04-07T12:51:12;73030.91;;;-145.80;30.97
6615;BME280;3343;42.896;23.912;2023-04-07T12:53:39;73048.94;;;-145.80;29.43
6615;BME280;3343;42.896;23.912;2023-04-07T12:56:06;73079.03;;;-145.80;30.78
6615;BME280;3343;42.896;23.912;2023-04-07T12:58:34;73042.94;;;-145.80;30.14
6615;BME280;3343;42.896;23.912;2023-04-07T13:01:02;73054.97;;;-145.80;30.53
6615;BME280;3343;42.896;23.912;2023-04-07T13:03:29;73085.03;;;-145.80;29.76